Time;durP1;ratioP1;P1;durP2;ratioP2;P2;SDS_P1;SDS_P2;PMS_P1;PMS_P2;Temp;Humidity;BMP_temperature;BMP_pressure;BME280_temperature;BME280_humidity;BME280_pressure;Samples;Min_cycle;Max_cycle;Signal;HPM_P1;HPM_P2
2022/11/13 00:02:07;;;;;;;;;42.33;37.00;;;;;10.79;87.14;100047.09;4953456;28;45702;-71
2022/11/13 00:04:33;;;;;;;;;44.67;35.33;;;;;10.76;87.41;100055.09;4945160;28;46026;-71
2022/11/13 00:06:58;;;;;;;;;41.00;35.33;;;;;10.74;87.31;100042.84;4943982;28;45473;-71
2022/11/13 00:09:24;;;;;;;;;40.67;33.67;;;;;10.71;87.63;100049.09;4966659;28;47083;-71
2022/11/13 00:11:49;;;;;;;;;38.00;35.00;;;;;10.68;87.69;100048.28;4950795;28;46051;-71
2022/11/13 00:14:14;;;;;;;;;44.00;35.67;;;;;10.66;88.06;100044.81;4948319;28;45494;-71
2022/11/13 00:16:40;;;;;;;;;39.67;35.33;;;;;10.62;88.19;100046.66;4949753;28;45585;-71
2022/11/13 00:19:05;;;;;;;;;37.33;34.33;;;;;10.60;88.25;100043.19;4952794;28;46403;-71
2022/11/13 00:21:30;;;;;;;;;39.00;34.33;;;;;10.57;88.38;100045.91;4951295;28;45528;-71
2022/11/13 00:23:56;;;;;;;;;42.67;34.67;;;;;10.54;88.62;100039.88;4951903;28;45462;-71
2022/11/13 00:26:24;;;;;;;;;46.67;36.33;;;;;10.52;88.57;100037.28;4953428;28;45571;-71
2022/11/13 00:29:08;;;;;;;;;46.67;36.67;;;;;10.49;88.84;100037.34;4956809;28;45832;-71
2022/11/13 00:31:33;;;;;;;;;39.33;31.33;;;;;10.46;89.15;100035.63;4949937;28;45582;-71
2022/11/13 00:33:59;;;;;;;;;57.00;44.00;;;;;10.43;89.06;100033.06;4956655;28;45458;-71
2022/11/13 00:36:27;;;;;;;;;48.33;38.67;;;;;10.42;89.19;100026.06;4955200;28;45531;-71
2022/11/13 00:38:53;;;;;;;;;48.67;37.67;;;;;10.42;89.25;100028.72;4943448;28;45555;-71
2022/11/13 00:41:19;;;;;;;;;39.67;35.67;;;;;10.40;89.39;100024.38;4961061;28;45452;-71
2022/11/13 00:43:45;;;;;;;;;46.33;38.00;;;;;10.39;89.62;100020.88;4939004;28;45533;-71
2022/11/13 00:46:10;;;;;;;;;42.67;37.67;;;;;10.38;89.64;100020.94;4954631;28;45398;-71
2022/11/13 00:48:36;;;;;;;;;42.67;35.67;;;;;10.36;89.43;100013.06;4947864;28;46182;-71
2022/11/13 00:51:03;;;;;;;;;41.00;35.33;;;;;10.36;89.73;100015.69;4970359;28;45493;-71
2022/11/13 00:53:28;;;;;;;;;41.67;34.33;;;;;10.34;89.64;100012.22;4950251;28;45443;-71
2022/11/13 00:55:54;;;;;;;;;39.67;35.00;;;;;10.31;89.78;100012.31;4951365;28;45368;-71
2022/11/13 00:58:19;;;;;;;;;44.33;35.00;;;;;10.30;90.00;100002.66;4956912;28;46196;-71
2022/11/13 01:00:46;;;;;;;;;40.00;35.00;;;;;10.30;90.02;100004.44;4955927;28;45374;-71
2022/11/13 01:03:13;;;;;;;;;42.33;36.33;;;;;10.28;89.99;100003.59;4954878;28;45406;-71
2022/11/13 01:05:41;;;;;;;;;38.00;33.00;;;;;10.27;89.99;99996.59;4960975;28;45560;-71
2022/11/13 01:08:08;;;;;;;;;32.67;31.33;;;;;10.25;89.87;100003.66;4948773;28;45517;-71
2022/11/13 01:10:39;;;;;;;;;38.67;33.00;;;;;10.21;89.81;99996.78;4959516;28;45497;-71
2022/11/13 01:13:05;;;;;;;;;37.33;30.67;;;;;10.19;89.80;99993.31;4964214;28;45398;-71
2022/11/13 01:15:30;;;;;;;;;33.67;27.33;;;;;10.16;89.78;99991.56;4957834;28;45500;-71
2022/11/13 01:17:55;;;;;;;;;27.67;25.67;;;;;10.15;89.61;99992.47;4956597;28;45560;-71
2022/11/13 01:20:23;;;;;;;;;30.33;27.00;;;;;10.13;89.50;99991.63;4950923;28;45540;-71
2022/11/13 01:22:48;;;;;;;;;51.33;37.33;;;;;10.10;89.34;99989.94;4958661;28;45484;-71
2022/11/13 01:25:13;;;;;;;;;30.33;27.00;;;;;10.09;89.65;99988.19;4968933;28;45743;-71
2022/11/13 01:27:39;;;;;;;;;34.33;30.00;;;;;10.08;89.74;99996.13;4955995;28;46381;-71
2022/11/13 01:30:05;;;;;;;;;41.00;34.33;;;;;10.07;89.87;99983.88;4951417;28;45398;-71
2022/11/13 01:32:30;;;;;;;;;35.00;32.33;;;;;10.04;89.98;99982.19;4955207;28;45463;-71
2022/11/13 01:34:56;;;;;;;;;32.33;30.00;;;;;10.02;90.02;99978.75;4955741;28;45460;-71
2022/11/13 01:37:22;;;;;;;;;39.33;34.33;;;;;9.99;90.05;99975.31;4954968;28;46373;-71
2022/11/13 01:39:47;;;;;;;;;37.00;33.67;;;;;9.95;90.22;99966.59;4943104;28;45443;-71
2022/11/13 01:42:12;;;;;;;;;38.00;34.67;;;;;9.92;90.31;99966.66;4956289;28;45414;-71
2022/11/13 01:44:56;;;;;;;;;39.67;33.33;;;;;9.91;90.40;99970.19;4969068;28;45606;-71
2022/11/13 01:47:23;;;;;;;;;40.00;35.00;;;;;9.87;90.40;99960.66;4945756;28;46432;-71
2022/11/13 01:49:54;;;;;;;;;44.67;36.00;;;;;9.85;90.79;99956.34;4940934;28;45547;-71
2022/11/13 01:52:41;;;;;;;;;36.67;32.67;;;;;9.82;90.78;99953.78;4954851;28;45414;-71
2022/11/13 01:55:12;;;;;;;;;48.67;38.33;;;;;9.76;90.83;99945.09;4952821;28;45931;-71
2022/11/13 01:57:38;;;;;;;;;43.67;36.67;;;;;9.73;91.07;99939.91;4952359;28;46588;-70
2022/11/13 02:00:08;;;;;;;;;40.33;33.00;;;;;9.71;91.06;99940.88;4954351;28;45315;-71
2022/11/13 02:02:34;;;;;;;;;45.33;37.33;;;;;9.67;90.96;99932.16;4955360;28;45742;-71
2022/11/13 02:05:00;;;;;;;;;42.33;36.00;;;;;9.65;91.31;99943.63;4955111;28;45524;-71
2022/11/13 02:07:26;;;;;;;;;43.67;34.00;;;;;9.62;91.40;99938.44;4962600;28;47449;-71
2022/11/13 02:09:55;;;;;;;;;40.33;35.33;;;;;9.60;91.52;99940.22;4967506;28;45632;-73
2022/11/13 02:12:35;;;;;;;;;33.00;30.67;;;;;9.58;91.76;99947.28;4952277;28;45528;-71
2022/11/13 02:15:06;;;;;;;;;37.33;34.67;;;;;9.54;91.91;99943.88;4952853;28;45414;-71
2022/11/13 02:17:54;;;;;;;;;34.33;31.00;;;;;9.53;91.81;99944.78;4953878;28;46787;-71
2022/11/13 02:20:34;;;;;;;;;36.00;32.00;;;;;9.49;91.99;99940.47;4955241;28;45690;-71
2022/11/13 02:22:59;;;;;;;;;37.33;34.00;;;;;9.49;92.08;99934.34;4956587;28;45430;-71
2022/11/13 02:25:27;;;;;;;;;39.33;33.00;;;;;9.48;92.27;99930.84;4952095;28;45539;-71
2022/11/13 02:27:52;;;;;;;;;39.33;33.00;;;;;9.46;92.23;99932.66;4951800;28;45820;-71
2022/11/13 02:30:21;;;;;;;;;35.00;32.67;;;;;9.45;92.46;99933.56;4945311;28;45438;-71
2022/11/13 02:32:49;;;;;;;;;39.67;33.00;;;;;9.43;92.18;99920.44;4952547;28;45547;-71
2022/11/13 02:35:20;;;;;;;;;40.00;36.00;;;;;9.42;92.47;99926.59;4954839;28;45630;-71
2022/11/13 02:37:46;;;;;;;;;38.33;32.33;;;;;9.40;92.54;99911.72;4954677;28;46341;-71
2022/11/13 02:40:12;;;;;;;;;43.33;36.00;;;;;9.38;92.75;99927.53;4940656;28;45463;-71
2022/11/13 02:42:37;;;;;;;;;41.00;35.67;;;;;9.37;92.72;99919.72;4954415;28;45660;-70
2022/11/13 02:45:04;;;;;;;;;36.00;33.00;;;;;9.35;92.87;99914.47;4954519;28;45530;-71
2022/11/13 02:47:30;;;;;;;;;42.67;36.00;;;;;9.34;92.82;99920.66;4953626;28;47638;-71
2022/11/13 02:49:55;;;;;;;;;41.00;34.67;;;;;9.32;93.17;99911.91;4950110;28;45415;-71
2022/11/13 02:52:21;;;;;;;;;41.67;36.00;;;;;9.34;93.03;99922.41;4953627;28;45445;-71
2022/11/13 02:54:46;;;;;;;;;46.33;37.00;;;;;9.33;93.18;99916.28;4945064;28;45456;-71
2022/11/13 02:57:11;;;;;;;;;36.67;33.67;;;;;9.36;93.21;99915.34;4954804;28;45365;-71
2022/11/13 02:59:37;;;;;;;;;36.33;33.00;;;;;9.38;93.31;99910.91;4948278;28;45469;-71
2022/11/13 03:02:02;;;;;;;;;41.67;35.67;;;;;9.40;93.53;99914.34;4954716;28;45954;-71
2022/11/13 03:04:28;;;;;;;;;34.00;32.33;;;;;9.41;93.14;99913.47;4945659;28;45446;-71
2022/11/13 03:06:53;;;;;;;;;37.00;33.00;;;;;9.42;93.08;99908.16;4968243;28;47964;-71
2022/11/13 03:09:18;;;;;;;;;36.33;32.67;;;;;9.44;92.95;99903.72;4948352;28;45552;-71
2022/11/13 03:11:44;;;;;;;;;42.33;35.33;;;;;9.46;92.88;99903.69;4954878;28;45755;-71
2022/11/13 03:14:09;;;;;;;;;38.00;33.33;;;;;9.48;92.35;99906.31;4969420;28;45828;-71
2022/11/13 03:16:35;;;;;;;;;32.33;27.33;;;;;9.49;92.77;99906.28;4954193;28;45461;-71
2022/11/13 03:19:01;;;;;;;;;43.00;35.67;;;;;9.51;92.81;99914.13;4952807;28;45431;-71
2022/11/13 03:21:27;;;;;;;;;35.00;32.67;;;;;9.51;93.09;99911.50;4949304;28;45493;-71
2022/11/13 03:23:53;;;;;;;;;35.67;32.33;;;;;9.52;92.95;99914.09;4953215;28;45547;-71
2022/11/13 03:26:18;;;;;;;;;38.67;33.00;;;;;9.54;93.14;99908.81;4946736;28;48159;-71
2022/11/13 03:28:45;;;;;;;;;37.33;32.00;;;;;9.55;93.08;99905.28;4951577;28;45326;-71
2022/11/13 03:31:11;;;;;;;;;34.00;33.00;;;;;9.57;92.82;99903.44;4954465;28;45424;-71
2022/11/13 03:33:36;;;;;;;;;36.00;31.33;;;;;9.59;92.80;99897.25;4954401;28;45450;-71
2022/11/13 03:36:02;;;;;;;;;38.00;31.33;;;;;9.61;92.61;99887.53;4953818;28;46385;-71
2022/11/13 03:38:27;;;;;;;;;34.33;30.00;;;;;9.63;92.52;99888.38;4953789;28;45382;-71
2022/11/13 03:40:52;;;;;;;;;34.67;33.33;;;;;9.65;92.55;99891.84;4960081;28;45730;-71
2022/11/13 03:43:18;;;;;;;;;35.67;30.00;;;;;9.66;92.33;99882.19;4954553;28;45489;-71
2022/11/13 03:45:45;;;;;;;;;33.00;31.67;;;;;9.68;92.00;99893.53;4954107;28;46612;-71
2022/11/13 03:48:11;;;;;;;;;32.67;28.00;;;;;9.68;92.09;99883.88;4969293;28;45718;-71
2022/11/13 03:50:36;;;;;;;;;33.67;31.67;;;;;9.70;92.07;99873.31;4954270;28;45451;-71
2022/11/13 03:53:02;;;;;;;;;35.00;29.67;;;;;9.69;92.06;99871.56;4946588;28;45480;-71
2022/11/13 03:55:27;;;;;;;;;32.67;31.00;;;;;9.71;91.93;99875.03;4948500;28;46004;-71
2022/11/13 03:57:53;;;;;;;;;36.33;32.00;;;;;9.72;91.92;99866.22;4952105;28;45438;-71
2022/11/13 04:00:18;;;;;;;;;36.00;32.33;;;;;9.74;91.67;99856.50;4953718;28;45728;-71
2022/11/13 04:02:43;;;;;;;;;43.00;33.00;;;;;9.74;91.59;99867.91;4955127;28;45911;-71
2022/11/13 04:05:10;;;;;;;;;34.67;31.33;;;;;9.75;91.59;99855.59;4956839;28;45379;-71
2022/11/13 04:07:35;;;;;;;;;37.67;32.33;;;;;9.74;91.64;99856.50;4955251;28;45391;-71
2022/11/13 04:10:01;;;;;;;;;35.00;31.00;;;;;9.75;91.55;99852.97;4956777;28;45600;-71
2022/11/13 04:12:26;;;;;;;;;33.67;31.33;;;;;9.74;91.46;99852.09;4956102;28;45376;-71
2022/11/13 04:14:51;;;;;;;;;33.33;29.00;;;;;9.75;91.40;99837.19;4958347;28;46561;-71
2022/11/13 04:17:17;;;;;;;;;33.00;30.67;;;;;9.73;91.31;99842.47;4953795;28;45418;-71
2022/11/13 04:19:42;;;;;;;;;30.33;29.67;;;;;9.72;91.33;99838.13;4953682;28;45371;-71
2022/11/13 04:22:07;;;;;;;;;35.33;31.67;;;;;9.73;91.20;99839.84;4948757;28;45475;-71
2022/11/13 04:24:33;;;;;;;;;33.33;32.00;;;;;9.73;91.06;99838.97;4962417;28;46464;-71
2022/11/13 04:26:58;;;;;;;;;32.00;31.33;;;;;9.71;90.94;99843.44;4949416;28;45360;-71
2022/11/13 04:29:23;;;;;;;;;33.67;28.33;;;;;9.71;90.96;99846.09;4950319;28;45538;-71
2022/11/13 04:31:49;;;;;;;;;30.33;23.67;;;;;9.69;90.84;99834.72;4956685;28;45572;-70
2022/11/13 04:34:14;;;;;;;;;24.00;23.33;;;;;9.68;90.94;99833.84;4956251;28;46656;-71
2022/11/13 04:36:40;;;;;;;;;32.00;29.67;;;;;9.68;91.17;99839.13;4954469;28;45422;-71
2022/11/13 04:39:06;;;;;;;;;32.00;29.67;;;;;9.67;90.85;99836.53;4959865;28;45865;-71
2022/11/13 04:44:15;;;;;;;;;26.67;26.67;;;;;9.64;90.93;99833.97;4951176;28;45450;-71
2022/11/13 04:46:41;;;;;;;;;32.33;26.67;;;;;9.64;91.26;99837.47;4950291;28;45508;-71
2022/11/13 04:49:06;;;;;;;;;25.67;23.00;;;;;9.64;91.17;99834.81;4947831;28;45457;-71
2022/11/13 04:51:31;;;;;;;;;31.33;30.67;;;;;9.64;91.32;99832.19;4950771;28;45491;-71
2022/11/13 04:53:57;;;;;;;;;31.67;30.00;;;;;9.63;91.27;99827.81;4953359;28;46724;-71
2022/11/13 04:56:22;;;;;;;;;32.67;30.33;;;;;9.64;91.23;99826.06;4956045;28;45441;-71
2022/11/13 04:58:48;;;;;;;;;29.67;28.00;;;;;9.62;91.20;99823.47;4956139;28;45606;-71
2022/11/13 05:01:13;;;;;;;;;26.67;23.33;;;;;9.62;91.32;99818.19;4955756;28;45690;-71
2022/11/13 05:03:38;;;;;;;;;25.33;25.33;;;;;9.64;91.16;99828.69;4956631;28;46192;-71
2022/11/13 05:06:06;;;;;;;;;37.33;31.00;;;;;9.63;91.11;99825.19;4953564;28;45357;-71
2022/11/13 05:08:32;;;;;;;;;30.00;29.67;;;;;9.63;91.19;99813.81;4951537;28;45317;-71
2022/11/13 05:10:58;;;;;;;;;36.00;30.33;;;;;9.61;91.03;99813.84;4950826;28;45454;-71
2022/11/13 05:13:24;;;;;;;;;32.00;30.67;;;;;9.62;91.18;99817.34;4953401;28;46059;-71
2022/11/13 05:15:50;;;;;;;;;37.33;32.33;;;;;9.60;91.01;99816.50;4949306;28;45517;-71
2022/11/13 05:18:15;;;;;;;;;32.33;25.67;;;;;9.59;91.08;99807.75;4953406;28;45578;-71
2022/11/13 05:20:40;;;;;;;;;28.00;25.33;;;;;9.59;91.06;99805.09;4944868;28;45406;-71
2022/11/13 05:23:06;;;;;;;;;31.67;27.00;;;;;9.60;91.04;99800.72;4947836;28;46246;-71
2022/11/13 05:25:31;;;;;;;;;28.67;27.67;;;;;9.60;90.95;99793.69;4951310;28;45426;-71
2022/11/13 05:27:57;;;;;;;;;28.67;25.00;;;;;9.57;91.04;99791.13;4953650;28;45918;-71
2022/11/13 05:30:23;;;;;;;;;24.00;22.67;;;;;9.59;90.95;99785.81;4955770;28;45456;-71
2022/11/13 05:32:48;;;;;;;;;32.00;26.33;;;;;9.57;90.95;99780.59;4955024;28;45430;-71
2022/11/13 05:35:14;;;;;;;;;31.00;27.00;;;;;9.56;90.91;99773.59;4954255;28;45464;-71
2022/11/13 05:37:40;;;;;;;;;31.33;26.33;;;;;9.55;90.88;99774.50;4954708;28;45483;-71
2022/11/13 05:40:06;;;;;;;;;33.00;27.00;;;;;9.54;90.79;99771.94;4960150;28;45585;-71
2022/11/13 05:42:31;;;;;;;;;30.67;27.67;;;;;9.53;90.58;99773.69;4950927;28;45398;-71
2022/11/13 05:44:56;;;;;;;;;18.33;16.00;;;;;9.52;90.99;99779.00;4955592;28;45476;-71
2022/11/13 05:47:22;;;;;;;;;30.00;28.33;;;;;9.51;91.04;99775.50;4954501;28;45714;-71
2022/11/13 05:49:47;;;;;;;;;24.67;22.00;;;;;9.51;91.20;99772.88;4970761;28;45483;-71
2022/11/13 05:52:12;;;;;;;;;29.33;27.67;;;;;9.50;91.13;99773.78;4953954;28;47167;-71
2022/11/13 05:54:38;;;;;;;;;30.33;25.67;;;;;9.50;91.18;99771.13;4954279;28;45526;-71
2022/11/13 05:57:03;;;;;;;;;27.00;26.67;;;;;9.49;91.11;99777.31;4970300;28;45483;-71
2022/11/13 05:59:29;;;;;;;;;35.00;30.67;;;;;9.48;91.16;99774.72;4950335;28;45461;-71
2022/11/13 06:01:54;;;;;;;;;28.00;23.67;;;;;9.48;91.43;99777.34;4953242;28;46139;-71
2022/11/13 06:04:19;;;;;;;;;39.33;32.33;;;;;9.45;91.40;99776.50;4956000;28;45475;-71
2022/11/13 06:06:45;;;;;;;;;28.67;28.00;;;;;9.45;91.60;99781.78;4962400;28;45654;-71
2022/11/13 06:09:16;;;;;;;;;35.67;32.67;;;;;9.46;91.74;99782.63;4960579;28;45430;-71
2022/11/13 06:11:41;;;;;;;;;34.33;33.00;;;;;9.45;91.62;99780.91;4951189;28;45440;-71
2022/11/13 06:14:06;;;;;;;;;33.33;32.00;;;;;9.45;91.73;99783.53;4940010;28;45375;-71
2022/11/13 06:16:37;;;;;;;;;33.67;32.33;;;;;9.47;91.85;99786.13;4956173;28;45470;-71
2022/11/13 06:19:04;;;;;;;;;33.67;33.33;;;;;9.45;91.82;99780.91;4949051;28;45586;-71
2022/11/13 06:21:33;;;;;;;;;39.33;35.33;;;;;9.47;91.82;99775.59;4954220;28;45750;-71
2022/11/13 06:23:59;;;;;;;;;43.33;36.33;;;;;9.46;91.92;99777.38;4952742;28;45411;-71
2022/11/13 06:26:33;;;;;;;;;41.67;33.33;;;;;9.47;92.04;99776.47;4952347;28;45621;-71
2022/11/13 06:29:01;;;;;;;;;38.33;35.00;;;;;9.45;91.99;99773.00;4954294;28;45497;-71
2022/11/13 06:31:29;;;;;;;;;37.00;34.00;;;;;9.47;91.98;99778.25;4952879;28;45571;-71
2022/11/13 06:33:57;;;;;;;;;31.00;29.33;;;;;9.46;92.03;99772.13;4954104;28;45469;-71
2022/11/13 06:36:28;;;;;;;;;33.00;29.33;;;;;9.47;92.16;99776.47;4954270;28;45504;-71
2022/11/13 06:38:53;;;;;;;;;37.00;31.00;;;;;9.48;91.84;99772.06;4950007;28;45507;-71
2022/11/13 06:41:22;;;;;;;;;34.67;29.67;;;;;9.47;91.82;99770.34;4937864;28;45470;-71
2022/11/13 06:43:47;;;;;;;;;31.33;31.33;;;;;9.47;91.77;99759.81;4952026;28;45481;-71
2022/11/13 06:46:18;;;;;;;;;28.00;26.33;;;;;9.47;91.60;99768.56;4951536;28;45510;-71
2022/11/13 06:48:44;;;;;;;;;29.67;26.33;;;;;9.47;91.82;99759.81;4954350;28;45504;-72
2022/11/13 06:51:29;;;;;;;;;39.67;33.00;;;;;9.48;91.77;99759.78;4953904;28;46038;-71
2022/11/13 06:53:55;;;;;;;;;39.67;33.33;;;;;9.48;91.93;99759.78;4944140;28;45391;-71
2022/11/13 06:56:21;;;;;;;;;32.67;26.33;;;;;9.49;91.93;99760.66;4945958;28;45540;-71
2022/11/13 06:58:47;;;;;;;;;39.67;33.00;;;;;9.50;91.74;99757.97;4945749;28;45468;-71
2022/11/13 07:01:17;;;;;;;;;34.67;33.00;;;;;9.52;91.78;99757.94;4951125;28;45766;-71
2022/11/13 07:03:43;;;;;;;;;37.00;33.00;;;;;9.52;91.76;99757.94;4943541;28;45574;-71
2022/11/13 07:06:17;;;;;;;;;41.67;35.67;;;;;9.54;91.75;99759.63;4954945;28;45711;-71
2022/11/13 07:08:44;;;;;;;;;35.33;33.00;;;;;9.55;91.85;99757.88;4951002;28;45505;-71
2022/11/13 07:11:12;;;;;;;;;36.00;31.67;;;;;9.57;91.57;99758.66;4954787;28;45516;-71
2022/11/13 07:13:38;;;;;;;;;35.00;32.33;;;;;9.57;91.60;99749.00;4954315;28;45411;-71
2022/11/13 07:16:05;;;;;;;;;44.00;33.00;;;;;9.61;91.27;99752.44;4958437;28;45446;-71
2022/11/13 07:18:31;;;;;;;;;39.33;35.33;;;;;9.65;91.46;99754.09;4954467;28;45586;-64
2022/11/13 07:20:58;;;;;;;;;37.00;33.33;;;;;9.70;91.27;99745.16;4950240;28;46442;-64
2022/11/13 07:23:23;;;;;;;;;36.33;32.33;;;;;9.76;90.75;99750.25;4956946;28;45469;-63
2022/11/13 07:25:54;;;;;;;;;36.33;33.00;;;;;9.80;90.91;99749.28;4962336;28;45423;-63
2022/11/13 07:28:19;;;;;;;;;39.00;34.33;;;;;9.83;90.77;99745.69;4943724;28;45496;-63
2022/11/13 07:30:44;;;;;;;;;51.00;36.33;;;;;9.87;90.75;99742.09;4940504;28;46151;-64
2022/11/13 07:33:10;;;;;;;;;41.00;34.00;;;;;9.89;90.58;99742.88;4949858;28;45453;-64
2022/11/13 07:35:35;;;;;;;;;36.67;34.33;;;;;9.92;90.62;99744.56;4949770;28;45497;-63
2022/11/13 07:38:01;;;;;;;;;42.00;34.67;;;;;9.94;90.34;99748.88;4952334;28;45453;-63
2022/11/13 07:40:26;;;;;;;;;46.67;35.00;;;;;9.97;90.44;99743.53;4964035;28;47911;-64
2022/11/13 07:42:59;;;;;;;;;44.33;36.00;;;;;10.01;90.35;99746.97;4946808;28;45477;-64
2022/11/13 07:45:26;;;;;;;;;43.33;36.67;;;;;10.03;90.26;99737.25;4951192;28;45493;-63
2022/11/13 07:48:00;;;;;;;;;40.67;35.00;;;;;10.06;90.29;99738.00;4948258;28;45453;-63
2022/11/13 07:50:27;;;;;;;;;35.33;33.00;;;;;10.10;90.03;99747.56;4948365;28;45518;-63
2022/11/13 07:52:57;;;;;;;;;29.67;27.00;;;;;10.12;89.85;99740.47;4953489;28;45494;-64
2022/11/13 07:55:23;;;;;;;;;45.00;32.00;;;;;10.14;89.80;99741.31;4950516;28;45606;-63
2022/11/13 07:57:48;;;;;;;;;42.67;36.33;;;;;10.20;89.86;99742.06;4950408;28;45609;-64
2022/11/13 08:00:14;;;;;;;;;43.00;35.67;;;;;10.23;89.54;99744.59;4951210;28;45752;-64
2022/11/13 08:02:39;;;;;;;;;41.33;34.00;;;;;10.27;89.56;99743.59;4949051;28;45526;-64
2022/11/13 08:05:05;;;;;;;;;40.67;33.00;;;;;10.29;89.31;99740.03;4949676;28;45406;-64
2022/11/13 08:07:30;;;;;;;;;46.33;34.33;;;;;10.32;89.15;99736.44;4948763;28;45486;-64
2022/11/13 08:09:56;;;;;;;;;42.00;35.67;;;;;10.35;89.11;99736.34;4948805;28;46614;-64
2022/11/13 08:12:21;;;;;;;;;45.00;33.00;;;;;10.37;89.02;99731.91;4945680;28;45430;-64
2022/11/13 08:14:46;;;;;;;;;35.00;33.00;;;;;10.38;88.86;99731.00;4942629;28;45766;-63
2022/11/13 08:17:12;;;;;;;;;45.67;35.33;;;;;10.37;88.78;99732.78;4948059;28;45402;-64
2022/11/13 08:19:37;;;;;;;;;39.67;35.67;;;;;10.38;88.73;99729.22;4951046;28;45595;-64
2022/11/13 08:22:02;;;;;;;;;38.00;35.00;;;;;10.40;88.57;99732.66;4950216;28;45433;-63
2022/11/13 08:24:28;;;;;;;;;48.00;38.00;;;;;10.42;88.79;99727.34;4953556;28;45468;-63
2022/11/13 08:26:53;;;;;;;;;41.00;36.00;;;;;10.45;88.52;99729.91;4949567;28;45549;-64
2022/11/13 08:29:18;;;;;;;;;40.67;34.33;;;;;10.43;88.41;99724.66;4947501;28;46357;-64
2022/11/13 08:31:44;;;;;;;;;42.00;36.00;;;;;10.45;88.52;99732.53;4950045;28;45478;-64
2022/11/13 08:34:09;;;;;;;;;38.00;33.67;;;;;10.45;88.41;99730.75;4953071;28;45399;-63
2022/11/13 08:36:35;;;;;;;;;41.00;36.00;;;;;10.48;88.62;99719.25;4951699;28;45482;-64
2022/11/13 08:39:00;;;;;;;;;47.00;38.67;;;;;10.50;88.32;99717.44;4950914;28;46481;-63
2022/11/13 08:41:25;;;;;;;;;39.67;35.00;;;;;10.48;88.29;99712.22;4952778;28;45502;-64
2022/11/13 08:43:51;;;;;;;;;40.33;33.00;;;;;10.48;88.17;99717.50;4945346;28;45398;-63
2022/11/13 08:46:16;;;;;;;;;44.00;35.00;;;;;10.52;88.21;99717.41;4952355;28;45736;-64
2022/11/13 08:48:41;;;;;;;;;38.33;34.67;;;;;10.54;88.18;99708.53;4964192;28;45568;-64
2022/11/13 08:51:07;;;;;;;;;45.00;35.00;;;;;10.57;88.03;99721.59;4949727;28;45384;-64
2022/11/13 08:53:32;;;;;;;;;22.67;19.33;;;;;10.57;88.03;99724.25;4954538;28;45386;-63
2022/11/13 08:56:01;;;;;;;;;42.00;33.00;;;;;10.58;87.99;99719.84;4948240;28;45426;-64
2022/11/13 08:58:27;;;;;;;;;44.67;38.00;;;;;10.60;87.82;99718.88;4952866;28;45471;-63
2022/11/13 09:00:52;;;;;;;;;43.33;36.00;;;;;10.61;87.87;99722.38;4956295;28;45471;-63
2022/11/13 09:03:17;;;;;;;;;44.00;34.00;;;;;10.64;87.80;99725.78;4960065;28;45429;-63
2022/11/13 09:05:43;;;;;;;;;50.67;38.67;;;;;10.64;87.81;99724.94;4954538;28;45497;-63
2022/11/13 09:08:09;;;;;;;;;46.00;38.67;;;;;10.66;87.67;99720.47;4960043;28;46482;-63
2022/11/13 09:10:35;;;;;;;;;44.00;37.33;;;;;10.69;87.71;99721.25;4959120;28;45711;-63
2022/11/13 09:13:03;;;;;;;;;42.33;34.00;;;;;10.70;87.68;99722.97;4947747;28;45535;-63
2022/11/13 09:15:30;;;;;;;;;41.67;35.33;;;;;10.72;87.53;99717.66;4951754;28;45728;-63
2022/11/13 09:17:57;;;;;;;;;46.33;37.67;;;;;10.75;87.38;99723.69;4950105;28;45749;-64
2022/11/13 09:20:22;;;;;;;;;45.33;37.67;;;;;10.77;87.23;99718.38;4953495;28;45580;-63
2022/11/13 09:22:47;;;;;;;;;47.33;38.67;;;;;10.79;87.38;99716.53;4950373;28;45558;-63
2022/11/13 09:25:13;;;;;;;;;43.67;35.67;;;;;10.79;87.33;99716.53;4953479;28;46371;-63
2022/11/13 09:27:38;;;;;;;;;46.33;35.00;;;;;10.83;87.10;99723.44;4955037;28;46038;-63
2022/11/13 09:30:04;;;;;;;;;37.67;34.00;;;;;10.84;86.95;99722.53;4953894;28;45498;-63
2022/11/13 09:32:30;;;;;;;;;43.67;36.67;;;;;10.84;87.08;99719.91;4955712;28;45590;-63
2022/11/13 09:34:55;;;;;;;;;48.67;37.33;;;;;10.89;87.11;99714.50;4942833;28;45367;-63
2022/11/13 09:37:20;;;;;;;;;37.67;32.67;;;;;10.92;87.10;99717.00;4955274;28;45417;-64
2022/11/13 09:39:46;;;;;;;;;43.33;38.67;;;;;10.94;87.10;99713.41;4951046;28;45465;-64
2022/11/13 09:42:18;;;;;;;;;47.00;37.00;;;;;11.00;86.86;99722.91;4953128;28;45552;-64
2022/11/13 09:44:49;;;;;;;;;43.33;36.33;;;;;11.05;86.43;99726.28;4954129;28;45430;-64
2022/11/13 09:47:20;;;;;;;;;38.33;35.00;;;;;11.08;86.72;99727.03;4952381;28;45407;-64
2022/11/13 09:49:50;;;;;;;;;47.00;38.00;;;;;11.14;86.48;99731.25;4953831;28;45409;-64
2022/11/13 09:52:23;;;;;;;;;48.00;40.00;;;;;11.19;85.92;99729.31;4951877;28;45536;-64
2022/11/13 09:54:48;;;;;;;;;50.00;38.33;;;;;11.25;86.61;99737.03;4951725;28;45540;-69
2022/11/13 09:57:22;;;;;;;;;47.00;39.33;;;;;11.31;85.92;99731.56;4955595;28;45926;-68
2022/11/13 09:59:51;;;;;;;;;43.00;35.33;;;;;11.34;85.59;99746.44;4948634;28;45339;-68
2022/11/13 10:02:29;;;;;;;;;48.33;37.00;;;;;11.37;85.24;99735.78;4951457;28;45370;-68
2022/11/13 10:05:26;;;;;;;;;50.33;38.33;;;;;11.42;85.47;99739.97;4950226;28;45620;-68
2022/11/13 10:08:35;;;;;;;;;50.67;39.00;;;;;11.50;85.37;99743.22;4946567;28;46422;-68
2022/11/13 10:11:33;;;;;;;;;50.33;38.33;;;;;11.57;84.95;99745.63;4951850;28;45581;-67
2022/11/13 10:14:12;;;;;;;;;41.00;34.67;;;;;11.61;84.76;99729.66;4944841;28;45583;-68
2022/11/13 10:16:46;;;;;;;;;40.00;34.00;;;;;11.65;84.54;99719.84;4969130;28;45509;-67
2022/11/13 10:19:29;;;;;;;;;47.67;37.67;;;;;11.70;84.58;99721.41;4952952;28;45508;-68
2022/11/13 10:22:03;;;;;;;;;47.00;35.67;;;;;11.75;84.65;99713.31;4951741;28;45687;-68
2022/11/13 10:24:40;;;;;;;;;49.33;38.33;;;;;11.85;84.39;99712.13;4960156;28;45528;-67
2022/11/13 10:27:10;;;;;;;;;51.67;37.00;;;;;11.92;84.17;99710.97;4953811;28;45442;-68
2022/11/13 10:29:37;;;;;;;;;47.67;35.33;;;;;12.00;83.73;99708.91;4954073;28;45576;-68
2022/11/13 10:32:22;;;;;;;;;51.33;38.00;;;;;12.08;83.37;99704.19;4966006;28;45572;-68
2022/11/13 10:35:03;;;;;;;;;44.33;36.00;;;;;12.13;83.29;99706.69;4941237;28;45562;-68
2022/11/13 10:37:44;;;;;;;;;42.00;35.33;;;;;12.19;83.20;99702.03;4953181;28;45513;-67
2022/11/13 10:40:09;;;;;;;;;43.00;34.67;;;;;12.22;82.49;99686.06;4957243;28;45546;-68
2022/11/13 10:42:40;;;;;;;;;45.00;35.67;;;;;12.23;82.55;99689.56;4953107;28;45431;-66
2022/11/13 10:45:15;;;;;;;;;46.67;37.67;;;;;12.23;82.61;99679.00;4950624;28;45767;-66
2022/11/13 10:47:49;;;;;;;;;44.33;36.33;;;;;12.22;82.54;99670.22;4952618;28;45479;-66
2022/11/13 10:50:26;;;;;;;;;47.33;39.00;;;;;12.20;82.29;99673.81;4950190;28;45623;-65
2022/11/13 10:52:54;;;;;;;;;41.67;34.67;;;;;12.22;82.27;99666.72;4949616;28;45456;-66
2022/11/13 10:55:35;;;;;;;;;38.67;35.00;;;;;12.26;82.58;99659.50;4950965;28;45605;-65
2022/11/13 10:58:03;;;;;;;;;47.33;36.67;;;;;12.26;82.24;99662.13;4951114;28;45453;-65
2022/11/13 11:00:37;;;;;;;;;49.00;39.67;;;;;12.23;82.08;99665.78;4943461;28;46156;-65
2022/11/13 11:03:07;;;;;;;;;47.00;37.33;;;;;12.19;81.99;99643.88;4965556;28;45470;-65
2022/11/13 11:05:32;;;;;;;;;44.00;37.67;;;;;12.20;82.31;99642.97;4963648;28;45490;-65
2022/11/13 11:07:58;;;;;;;;;43.33;35.67;;;;;12.20;82.17;99650.91;4950984;28;45512;-66
2022/11/13 11:10:35;;;;;;;;;49.67;42.00;;;;;12.24;81.74;99654.25;4951816;28;46095;-65
2022/11/13 11:13:10;;;;;;;;;49.33;41.00;;;;;12.23;81.86;99648.13;4952280;28;45486;-65
2022/11/13 11:15:49;;;;;;;;;51.33;42.00;;;;;12.24;82.00;99641.91;4949645;28;45565;-66
2022/11/13 11:18:23;;;;;;;;;46.67;37.67;;;;;12.27;81.95;99626.84;4953253;28;45495;-66
2022/11/13 11:20:53;;;;;;;;;49.33;39.67;;;;;12.29;81.80;99620.59;4948662;28;46367;-65
2022/11/13 11:23:34;;;;;;;;;49.67;40.00;;;;;12.30;81.67;99606.44;4962782;28;45500;-66
2022/11/13 11:26:08;;;;;;;;;39.00;34.33;;;;;12.31;81.73;99600.25;4951027;28;45633;-66
2022/11/13 11:28:45;;;;;;;;;46.67;37.67;;;;;12.32;81.83;99603.75;4954175;28;45442;-66